Time;durP1;ratioP1;P1;durP2;ratioP2;P2;SDS_P1;SDS_P2;PMS_P1;PMS_P2;Temp;Humidity;BMP_temperature;BMP_pressure;BME280_temperature;BME280_humidity;BME280_pressure;Samples;Min_cycle;Max_cycle;Signal;HPM_P1;HPM_P2
2022/04/03 00:01:47;;;;;;;28.10;17.50;;;-0.10;99.90;;;;;;5052819;28;20108;-73
2022/04/03 00:04:14;;;;;;;23.58;16.13;;;-0.10;99.90;;;;;;5052601;28;20096;-72
2022/04/03 00:06:39;;;;;;;24.48;16.60;;;-0.10;99.90;;;;;;5045733;28;20033;-72
2022/04/03 00:09:05;;;;;;;23.65;15.43;;;0.00;99.90;;;;;;5041435;28;20390;-73
2022/04/03 00:11:31;;;;;;;26.20;16.85;;;-0.10;99.90;;;;;;5033070;28;20054;-74
2022/04/03 00:13:57;;;;;;;26.80;17.10;;;-0.10;99.90;;;;;;5032687;28;20025;-74
2022/04/03 00:16:22;;;;;;;25.98;17.63;;;-0.20;99.90;;;;;;5036075;28;20032;-73
2022/04/03 00:18:49;;;;;;;27.25;16.92;;;-0.20;99.90;;;;;;5051989;28;20539;-74
2022/04/03 00:21:16;;;;;;;28.40;16.90;;;-0.20;99.90;;;;;;5048475;28;20170;-73
2022/04/03 00:23:42;;;;;;;26.45;17.55;;;-0.10;99.90;;;;;;5047555;28;20081;-74
2022/04/03 00:26:07;;;;;;;29.02;17.13;;;-0.20;99.90;;;;;;5044065;28;20120;-74
2022/04/03 00:28:33;;;;;;;25.65;16.63;;;-0.20;99.90;;;;;;5039038;28;20039;-73
2022/04/03 00:30:59;;;;;;;26.27;15.98;;;-0.20;99.90;;;;;;5032464;28;20494;-73
2022/04/03 00:33:25;;;;;;;27.15;17.05;;;-0.10;99.90;;;;;;5031791;28;20026;-74
2022/04/03 00:35:51;;;;;;;22.67;15.95;;;-0.10;99.90;;;;;;5038911;28;20072;-74
2022/04/03 00:38:17;;;;;;;26.80;16.80;;;-0.20;99.90;;;;;;5052085;28;20047;-73
2022/04/03 00:40:47;;;;;;;26.83;16.85;;;-0.20;99.90;;;;;;5043993;28;20108;-74
2022/04/03 00:43:13;;;;;;;25.70;16.48;;;-0.20;99.90;;;;;;5032144;28;20099;-73
2022/04/03 00:45:43;;;;;;;28.15;17.50;;;-0.30;99.90;;;;;;5044810;28;20481;-74
2022/04/03 00:48:09;;;;;;;;;;;-0.20;99.90;;;;;;5050944;28;20029;-74
2022/04/03 00:50:35;;;;;;;28.10;15.57;;;-0.30;99.90;;;;;;5052446;28;19939;-73
2022/04/03 00:53:01;;;;;;;28.52;15.80;;;-0.30;99.90;;;;;;5043179;28;20061;-73
2022/04/03 00:55:27;;;;;;;27.90;17.23;;;-0.20;99.90;;;;;;5040373;28;20473;-74
2022/04/03 00:57:53;;;;;;;29.50;16.42;;;-0.20;99.90;;;;;;5038803;28;20420;-73
2022/04/03 01:00:18;;;;;;;25.40;16.88;;;-0.20;99.90;;;;;;5033402;28;20426;-73
2022/04/03 01:02:44;;;;;;;26.92;17.60;;;-0.30;99.90;;;;;;5033122;28;20108;-73
2022/04/03 01:05:10;;;;;;;26.95;16.85;;;-0.30;99.90;;;;;;5031749;28;20386;-73
2022/04/03 01:07:36;;;;;;;27.70;16.98;;;-0.30;99.90;;;;;;5032455;28;20079;-74
2022/04/03 01:10:02;;;;;;;30.50;17.75;;;-0.30;99.90;;;;;;5031523;28;20099;-74
2022/04/03 01:12:28;;;;;;;23.05;16.17;;;-0.30;99.90;;;;;;5032368;28;20451;-73
2022/04/03 01:14:54;;;;;;;25.40;17.42;;;-0.30;99.90;;;;;;5048208;28;20032;-73
2022/04/03 01:17:19;;;;;;;28.48;17.52;;;-0.30;99.90;;;;;;5050979;28;20505;-73
2022/04/03 01:19:45;;;;;;;28.13;17.52;;;-0.30;99.90;;;;;;5044396;28;20065;-72
2022/04/03 01:22:12;;;;;;;25.35;17.05;;;-0.30;99.90;;;;;;5031159;28;20033;-73
2022/04/03 01:24:42;;;;;;;30.88;19.27;;;-0.30;99.90;;;;;;5041091;28;20037;-72
2022/04/03 01:27:08;;;;;;;28.25;17.85;;;-0.30;99.90;;;;;;5046132;28;20104;-73
2022/04/03 01:29:33;;;;;;;29.75;18.85;;;-0.30;99.90;;;;;;5039475;28;20132;-72
2022/04/03 01:31:59;;;;;;;34.25;20.38;;;-0.30;99.90;;;;;;5032938;28;20175;-73
2022/04/03 01:34:25;;;;;;;31.25;19.55;;;-0.30;99.90;;;;;;5047436;28;20458;-73
2022/04/03 01:36:50;;;;;;;30.98;20.17;;;-0.30;99.90;;;;;;5052034;28;20021;-72
2022/04/03 01:39:16;;;;;;;30.25;19.88;;;-0.30;99.90;;;;;;5050780;28;20086;-73
2022/04/03 01:41:43;;;;;;;35.22;19.88;;;-0.30;99.90;;;;;;5043734;28;20030;-73
2022/04/03 01:44:10;;;;;;;34.10;20.90;;;-0.40;99.90;;;;;;5048235;28;20087;-72
2022/04/03 01:46:37;;;;;;;34.25;19.77;;;-0.30;99.90;;;;;;5031963;28;20459;-73
2022/04/03 01:49:04;;;;;;;32.50;19.65;;;-0.30;99.90;;;;;;5030384;28;20033;-73
2022/04/03 01:51:31;;;;;;;30.80;18.52;;;-0.30;99.90;;;;;;5031517;28;20383;-72
2022/04/03 01:53:56;;;;;;;30.30;17.85;;;-0.30;99.90;;;;;;5049762;28;20035;-74
2022/04/03 01:56:22;;;;;;;31.83;18.60;;;-0.40;99.90;;;;;;5051180;28;20028;-74
2022/04/03 01:58:48;;;;;;;28.85;18.27;;;-0.30;99.90;;;;;;5032786;28;20072;-74
2022/04/03 02:01:13;;;;;;;29.52;19.10;;;-0.40;99.90;;;;;;5030799;28;20104;-74
2022/04/03 02:03:39;;;;;;;28.23;17.52;;;-0.40;99.90;;;;;;5031430;28;20032;-72
2022/04/03 02:06:05;;;;;;;25.95;16.58;;;-0.30;99.90;;;;;;5032406;28;20163;-74
2022/04/03 02:08:31;;;;;;;26.83;16.98;;;-0.30;99.90;;;;;;5051588;28;20066;-74
2022/04/03 02:10:58;;;;;;;25.88;16.65;;;-0.30;99.90;;;;;;5051405;28;20057;-75
2022/04/03 02:13:24;;;;;;;26.00;16.20;;;-0.30;99.90;;;;;;5042317;28;20052;-72
2022/04/03 02:15:50;;;;;;;28.42;17.45;;;-0.40;99.90;;;;;;5031287;28;20109;-73
2022/04/03 02:18:15;;;;;;;27.17;17.08;;;-0.40;99.90;;;;;;5030549;28;20140;-72
2022/04/03 02:20:41;;;;;;;27.42;17.13;;;-0.40;99.90;;;;;;5049352;28;20021;-72
2022/04/03 02:23:07;;;;;;;30.73;17.98;;;-0.40;99.90;;;;;;5050610;28;20033;-74
2022/04/03 02:25:32;;;;;;;29.33;17.73;;;-0.40;99.90;;;;;;5051197;28;20438;-74
2022/04/03 02:28:01;;;;;;;24.23;16.00;;;-0.40;99.90;;;;;;5050747;28;20025;-75
2022/04/03 02:30:27;;;;;;;27.92;17.13;;;-0.30;99.90;;;;;;5036189;28;20048;-73
2022/04/03 02:32:53;;;;;;;26.15;17.15;;;-0.30;99.90;;;;;;5031084;28;20030;-73
2022/04/03 02:35:19;;;;;;;27.15;18.00;;;-0.30;99.90;;;;;;5030515;28;20104;-74
2022/04/03 02:37:44;;;;;;;26.85;17.50;;;-0.40;99.90;;;;;;5031256;28;20426;-74
2022/04/03 02:40:13;;;;;;;28.42;17.02;;;-0.40;99.90;;;;;;5030200;28;20037;-73
2022/04/03 02:42:39;;;;;;;27.00;17.35;;;-0.40;99.90;;;;;;5033958;28;20460;-74
2022/04/03 02:45:06;;;;;;;26.15;17.15;;;-0.40;99.90;;;;;;5048248;28;20021;-74
2022/04/03 02:47:33;;;;;;;27.35;17.10;;;-0.30;99.90;;;;;;5031298;28;20030;-74
2022/04/03 02:49:59;;;;;;;29.90;17.13;;;-0.30;99.90;;;;;;5030536;28;20133;-74
2022/04/03 02:52:25;;;;;;;26.20;16.98;;;-0.20;99.90;;;;;;5034020;28;20108;-74
2022/04/03 02:54:50;;;;;;;25.48;16.98;;;-0.20;99.90;;;;;;5049964;28;20385;-74
2022/04/03 02:57:17;;;;;;;26.20;17.67;;;-0.30;99.90;;;;;;5048805;28;20021;-74
2022/04/03 02:59:43;;;;;;;27.67;17.15;;;-0.30;99.90;;;;;;5051897;28;20068;-74
2022/04/03 03:02:10;;;;;;;28.38;17.30;;;-0.40;99.90;;;;;;5053002;28;20528;-75
2022/04/03 03:04:36;;;;;;;25.30;17.05;;;-0.40;99.90;;;;;;5046274;28;20036;-74
2022/04/03 03:07:05;;;;;;;27.70;17.33;;;-0.40;99.90;;;;;;5034187;28;20100;-75
2022/04/03 03:09:31;;;;;;;24.63;16.07;;;-0.30;99.90;;;;;;5042141;28;20116;-74
2022/04/03 03:12:00;;;;;;;25.13;16.45;;;-0.30;99.90;;;;;;5053462;28;20606;-74
2022/04/03 03:14:26;;;;;;;24.05;15.50;;;-0.30;99.90;;;;;;5047203;28;20425;-74
2022/04/03 03:16:52;;;;;;;25.23;15.52;;;-0.30;99.90;;;;;;5035499;28;20021;-74
2022/04/03 03:19:18;;;;;;;27.30;15.43;;;-0.20;99.90;;;;;;5033617;28;20072;-74
2022/04/03 03:21:43;;;;;;;23.42;15.75;;;-0.20;99.90;;;;;;5034094;28;20099;-74
2022/04/03 03:24:09;;;;;;;25.92;16.17;;;-0.30;99.90;;;;;;5050401;28;20036;-75
2022/04/03 03:26:36;;;;;;;27.20;16.70;;;-0.40;99.90;;;;;;5043827;28;20026;-74
2022/04/03 03:29:02;;;;;;;24.65;17.52;;;-0.40;99.90;;;;;;5033776;28;20104;-73
2022/04/03 03:31:28;;;;;;;26.95;17.17;;;-0.50;99.90;;;;;;5043473;28;20028;-74
2022/04/03 03:33:54;;;;;;;28.83;17.13;;;-0.50;99.90;;;;;;5052186;28;20039;-74
2022/04/03 03:36:20;;;;;;;26.20;16.95;;;-0.40;99.90;;;;;;5051263;28;20025;-73
2022/04/03 03:38:45;;;;;;;27.15;16.50;;;-0.30;99.90;;;;;;5054118;28;20048;-73
2022/04/03 03:41:11;;;;;;;28.40;17.85;;;-0.30;99.90;;;;;;5048600;28;20096;-73
2022/04/03 03:43:37;;;;;;;30.35;17.90;;;-0.40;99.90;;;;;;5037262;28;20060;-74
2022/04/03 03:46:03;;;;;;;28.92;16.83;;;-0.40;99.90;;;;;;5033342;28;20033;-76
2022/04/03 03:48:28;;;;;;;23.48;15.90;;;-0.40;99.90;;;;;;5034772;28;20030;-74
2022/04/03 03:50:55;;;;;;;23.05;15.20;;;-0.30;99.90;;;;;;5035247;28;20045;-72
2022/04/03 03:53:21;;;;;;;23.95;15.20;;;-0.30;99.90;;;;;;5033897;28;20467;-74
2022/04/03 03:55:47;;;;;;;26.33;16.38;;;-0.40;99.90;;;;;;5053423;28;20025;-73
2022/04/03 03:58:13;;;;;;;25.85;14.88;;;-0.20;99.90;;;;;;5052857;28;20047;-74
2022/04/03 04:00:38;;;;;;;25.73;15.80;;;-0.30;99.90;;;;;;5052878;28;20037;-73
2022/04/03 04:03:04;;;;;;;24.08;15.63;;;-0.30;99.90;;;;;;5040867;28;20029;-74
2022/04/03 04:05:30;;;;;;;24.70;15.77;;;-0.30;99.90;;;;;;5052967;28;20079;-74
2022/04/03 04:07:56;;;;;;;22.35;15.80;;;-0.20;99.90;;;;;;5052243;28;20074;-73
2022/04/03 04:10:22;;;;;;;23.23;14.73;;;-0.20;99.90;;;;;;5050655;28;20025;-74
2022/04/03 04:12:48;;;;;;;25.17;15.68;;;-0.30;99.90;;;;;;5051769;28;20124;-73
2022/04/03 04:15:15;;;;;;;22.48;15.68;;;-0.30;99.90;;;;;;5052549;28;20036;-73
2022/04/03 04:17:46;;;;;;;23.67;14.65;;;-0.30;99.90;;;;;;5053185;28;20028;-74
2022/04/03 04:20:15;;;;;;;23.40;14.38;;;-0.30;99.90;;;;;;5035557;28;20060;-74
2022/04/03 04:22:46;;;;;;;24.55;14.73;;;-0.20;99.90;;;;;;5033335;28;20036;-74
2022/04/03 04:25:13;;;;;;;22.77;14.65;;;-0.20;99.90;;;;;;5032734;28;20029;-74
2022/04/03 04:27:40;;;;;;;23.58;15.95;;;-0.20;99.90;;;;;;5033114;28;20064;-73
2022/04/03 04:30:06;;;;;;;21.48;14.43;;;-0.30;99.90;;;;;;5032882;28;20033;-74
2022/04/03 04:32:32;;;;;;;22.70;15.05;;;-0.40;99.90;;;;;;5032626;28;20037;-74
2022/04/03 04:34:57;;;;;;;22.15;14.88;;;-0.30;99.90;;;;;;5033062;28;20391;-73
2022/04/03 04:37:23;;;;;;;24.13;15.93;;;-0.40;99.90;;;;;;5035459;28;20021;-73
2022/04/03 04:39:50;;;;;;;23.75;14.98;;;-0.40;99.90;;;;;;5052590;28;20037;-73
2022/04/03 04:42:15;;;;;;;22.92;14.82;;;-0.30;99.90;;;;;;5052115;28;20021;-74
2022/04/03 04:44:42;;;;;;;22.73;14.70;;;-0.30;99.90;;;;;;5052259;28;20091;-73
2022/04/03 04:47:08;;;;;;;23.80;14.68;;;-0.40;99.90;;;;;;5033338;28;20040;-74
2022/04/03 04:49:34;;;;;;;23.60;14.02;;;-0.30;99.90;;;;;;5041132;28;20449;-73
2022/04/03 04:51:59;;;;;;;22.13;14.43;;;-0.30;99.90;;;;;;5048279;28;20101;-73
2022/04/03 04:54:26;;;;;;;21.67;14.13;;;-0.20;99.90;;;;;;5032267;28;20209;-74
2022/04/03 04:56:53;;;;;;;23.95;14.82;;;-0.20;99.90;;;;;;5032762;28;20530;-74
2022/04/03 04:59:19;;;;;;;24.23;15.00;;;-0.30;99.90;;;;;;5032048;28;20025;-73
2022/04/03 05:01:45;;;;;;;27.23;15.00;;;-0.30;99.90;;;;;;5032556;28;20098;-72
2022/04/03 05:04:10;;;;;;;24.20;14.45;;;-0.30;99.90;;;;;;5031882;28;20109;-73
2022/04/03 05:06:38;;;;;;;22.08;13.77;;;-0.30;99.90;;;;;;5032436;28;20538;-74
2022/04/03 05:09:04;;;;;;;22.88;14.15;;;-0.30;99.90;;;;;;5044621;28;20033;-77
2022/04/03 05:11:31;;;;;;;23.27;13.00;;;-0.30;99.90;;;;;;5052034;28;20032;-74
2022/04/03 05:13:59;;;;;;;21.50;13.18;;;-0.30;99.90;;;;;;5053757;28;20029;-73
2022/04/03 05:16:26;;;;;;;22.52;13.70;;;-0.30;99.90;;;;;;5052879;28;20597;-73
2022/04/03 05:18:54;;;;;;;21.48;14.20;;;-0.40;99.90;;;;;;5042530;28;20037;-73
2022/04/03 05:21:23;;;;;;;23.08;14.48;;;-0.40;99.90;;;;;;5033349;28;20144;-73
2022/04/03 05:23:49;;;;;;;23.55;13.65;;;-0.30;99.90;;;;;;5032769;28;20079;-74
2022/04/03 05:26:17;;;;;;;18.42;12.57;;;-0.30;99.90;;;;;;5039263;28;20040;-73
2022/04/03 05:28:45;;;;;;;24.17;13.63;;;-0.20;99.90;;;;;;5052043;28;20068;-73
2022/04/03 05:31:11;;;;;;;22.25;12.32;;;-0.30;99.90;;;;;;5051759;28;20051;-74
2022/04/03 05:33:37;;;;;;;21.42;12.13;;;-0.30;99.90;;;;;;5045756;28;20529;-72
2022/04/03 05:36:03;;;;;;;19.05;12.98;;;-0.20;99.90;;;;;;5038207;28;20362;-73
2022/04/03 05:38:30;;;;;;;18.95;11.48;;;-0.30;99.90;;;;;;5049556;28;20031;-76
2022/04/03 05:40:56;;;;;;;21.00;12.52;;;-0.30;99.90;;;;;;5049863;28;20025;-76
2022/04/03 05:43:22;;;;;;;20.05;12.55;;;-0.30;99.90;;;;;;5040336;28;20071;-74
2022/04/03 05:45:47;;;;;;;16.13;11.73;;;-0.30;99.90;;;;;;5046868;28;20482;-74
2022/04/03 05:48:13;;;;;;;16.92;11.50;;;-0.30;99.90;;;;;;5051993;28;20033;-75
2022/04/03 05:50:39;;;;;;;15.98;10.88;;;-0.20;99.90;;;;;;5054959;28;20048;-73
2022/04/03 05:53:06;;;;;;;17.10;11.20;;;-0.20;99.90;;;;;;5051306;28;20450;-73
2022/04/03 05:55:31;;;;;;;17.00;10.93;;;-0.20;99.90;;;;;;5051145;28;20462;-73
2022/04/03 05:57:57;;;;;;;14.38;10.07;;;-0.10;99.90;;;;;;5053100;28;20040;-75
2022/04/03 06:00:24;;;;;;;16.52;10.98;;;-0.10;99.90;;;;;;5037281;28;20044;-76
2022/04/03 06:02:58;;;;;;;17.85;11.73;;;0.00;99.90;;;;;;5038207;28;20036;-73
2022/04/03 06:05:26;;;;;;;15.02;10.07;;;0.00;99.90;;;;;;5037413;28;20409;-74
2022/04/03 06:07:52;;;;;;;17.02;10.13;;;0.00;99.90;;;;;;5037162;28;20100;-74
2022/04/03 06:10:19;;;;;;;15.20;10.15;;;0.00;99.90;;;;;;5043968;28;20120;-75
2022/04/03 06:13:04;;;;;;;17.75;11.05;;;0.10;99.90;;;;;;5051814;28;20036;-74
2022/04/03 06:15:35;;;;;;;16.42;11.00;;;0.10;99.90;;;;;;5050552;28;20040;-74
2022/04/03 06:18:02;;;;;;;15.25;9.75;;;0.10;99.90;;;;;;5050220;28;20454;-73
2022/04/03 06:20:28;;;;;;;15.35;10.23;;;0.10;99.90;;;;;;5049997;28;20611;-71
2022/04/03 06:22:54;;;;;;;19.20;9.73;;;0.20;99.90;;;;;;5050527;28;20025;-73
2022/04/03 06:25:20;;;;;;;11.80;8.98;;;0.20;99.90;;;;;;5033993;28;20440;-81
2022/04/03 06:27:46;;;;;;;14.45;9.48;;;0.20;99.90;;;;;;5045959;28;20032;-73
2022/04/03 06:30:12;;;;;;;15.00;9.32;;;0.30;99.90;;;;;;5050547;28;20083;-72
2022/04/03 06:32:38;;;;;;;16.17;8.32;;;0.40;99.90;;;;;;5049771;28;20061;-73
2022/04/03 06:35:04;;;;;;;17.00;9.48;;;0.50;99.90;;;;;;5054066;28;20036;-72
2022/04/03 06:37:40;;;;;;;12.18;8.57;;;0.50;99.90;;;;;;5036951;28;20030;-72
2022/04/03 06:40:07;;;;;;;13.23;8.05;;;0.60;99.90;;;;;;5035861;28;20497;-78
2022/04/03 06:42:33;;;;;;;14.38;8.48;;;0.70;99.90;;;;;;5049240;28;20108;-79
2022/04/03 06:45:00;;;;;;;15.55;9.40;;;0.70;99.90;;;;;;5047748;28;20053;-79
2022/04/03 06:47:27;;;;;;;11.00;7.80;;;0.70;99.90;;;;;;5053492;28;20112;-83
2022/04/03 06:49:52;;;;;;;12.50;7.78;;;0.80;99.90;;;;;;5058638;28;20049;-77
2022/04/03 06:52:18;;;;;;;13.23;8.13;;;0.90;99.90;;;;;;5052576;28;20025;-77
2022/04/03 06:54:44;;;;;;;17.20;8.52;;;0.90;99.90;;;;;;5033927;28;20079;-73
2022/04/03 06:57:13;;;;;;;14.02;8.70;;;1.00;99.90;;;;;;5049590;28;20059;-72
2022/04/03 06:59:39;;;;;;;11.83;8.40;;;1.00;99.90;;;;;;5035301;28;20082;-74
2022/04/03 07:02:05;;;;;;;12.05;6.90;;;1.20;99.90;;;;;;5034576;28;20280;-74
2022/04/03 07:04:31;;;;;;;10.77;6.43;;;1.30;99.90;;;;;;5033854;28;20040;-73
2022/04/03 07:06:56;;;;;;;11.70;7.50;;;1.50;99.90;;;;;;5035165;28;20379;-74
2022/04/03 07:09:22;;;;;;;9.27;6.55;;;1.60;99.90;;;;;;5033838;28;20025;-74
2022/04/03 07:11:47;;;;;;;9.63;6.60;;;1.60;99.90;;;;;;5036820;28;20120;-73
2022/04/03 07:14:13;;;;;;;14.10;7.05;;;1.80;99.90;;;;;;5055083;28;20497;-74
2022/04/03 07:16:39;;;;;;;11.88;6.85;;;1.90;99.90;;;;;;5044782;28;20025;-74
2022/04/03 07:19:05;;;;;;;12.50;7.82;;;1.90;99.90;;;;;;5016943;28;20356;-75
2022/04/03 07:21:31;;;;;;;11.40;7.53;;;2.00;99.90;;;;;;5033942;28;20179;-75
2022/04/03 07:23:56;;;;;;;11.10;6.97;;;2.00;99.90;;;;;;5034409;28;20067;-76
2022/04/03 07:26:22;;;;;;;11.75;7.22;;;2.00;99.90;;;;;;5045090;28;20033;-74
2022/04/03 07:28:48;;;;;;;12.70;7.10;;;1.90;99.90;;;;;;5045909;28;20091;-75
2022/04/03 07:31:14;;;;;;;9.80;6.30;;;1.80;99.90;;;;;;5033895;28;20037;-73
2022/04/03 07:33:39;;;;;;;9.80;6.93;;;1.80;99.90;;;;;;5035030;28;20055;-74
2022/04/03 07:36:05;;;;;;;9.98;6.55;;;1.90;99.90;;;;;;5041785;28;20132;-73
2022/04/03 07:38:31;;;;;;;8.93;6.80;;;2.00;99.90;;;;;;5044432;28;20451;-73
2022/04/03 07:40:57;;;;;;;12.38;7.20;;;2.10;99.90;;;;;;5053984;28;20052;-73
2022/04/03 07:43:23;;;;;;;11.15;6.88;;;2.20;99.90;;;;;;5042346;28;20090;-73
2022/04/03 07:45:49;;;;;;;12.13;6.35;;;2.30;99.90;;;;;;5036595;28;20492;-73
2022/04/03 07:48:19;;;;;;;10.23;6.60;;;2.40;99.90;;;;;;5034070;28;20104;-73
2022/04/03 07:50:45;;;;;;;7.65;5.95;;;2.40;99.90;;;;;;5023042;28;20049;-73
2022/04/03 07:53:11;;;;;;;13.55;8.07;;;2.50;99.90;;;;;;5016363;28;20041;-74
2022/04/03 07:55:36;;;;;;;11.27;7.43;;;2.50;99.90;;;;;;5033885;28;20102;-73
2022/04/03 07:58:02;;;;;;;10.77;6.60;;;2.40;99.90;;;;;;5034295;28;20529;-73
2022/04/03 08:00:28;;;;;;;9.32;6.38;;;2.40;99.90;;;;;;5026649;28;20176;-73
2022/04/03 08:02:54;;;;;;;11.38;6.38;;;2.40;99.90;;;;;;5028183;28;20112;-73
2022/04/03 08:05:20;;;;;;;10.32;6.47;;;2.50;99.90;;;;;;5032443;28;20104;-73
2022/04/03 08:07:46;;;;;;;8.88;6.18;;;2.50;99.90;;;;;;5019701;28;20184;-73
2022/04/03 08:10:14;;;;;;;13.75;7.03;;;2.60;99.90;;;;;;5013659;28;20030;-74
2022/04/03 08:12:42;;;;;;;10.88;5.82;;;2.60;99.90;;;;;;5026523;28;20065;-75
2022/04/03 08:15:10;;;;;;;10.98;6.25;;;2.60;99.90;;;;;;5035960;28;20116;-73
2022/04/03 08:17:40;;;;;;;8.02;6.20;;;2.60;99.90;;;;;;5020921;28;20037;-73
2022/04/03 08:20:08;;;;;;;10.27;6.53;;;2.70;99.90;;;;;;5018041;28;20033;-72
2022/04/03 08:22:35;;;;;;;11.45;7.00;;;2.70;99.90;;;;;;5012394;28;20109;-72
2022/04/03 08:25:01;;;;;;;10.82;6.13;;;2.80;99.90;;;;;;5014346;28;20398;-72
2022/04/03 08:27:47;;;;;;;8.18;5.80;;;2.90;99.90;;;;;;5013620;28;20038;-72
2022/04/03 08:30:28;;;;;;;8.23;5.80;;;3.00;99.90;;;;;;5012563;28;20033;-72
2022/04/03 08:32:55;;;;;;;11.52;5.15;;;3.00;99.90;;;;;;5018447;28;20483;-72
2022/04/03 08:35:23;;;;;;;8.27;5.53;;;3.10;99.90;;;;;;5012534;28;20534;-72
2022/04/03 08:37:50;;;;;;;8.60;5.95;;;3.10;99.90;;;;;;5013343;28;20475;-72
2022/04/03 08:40:18;;;;;;;8.52;5.55;;;3.20;99.90;;;;;;5013075;28;20034;-73
2022/04/03 08:42:43;;;;;;;8.95;5.40;;;3.30;99.90;;;;;;5017732;28;20080;-72
2022/04/03 08:45:13;;;;;;;7.32;4.95;;;3.40;99.90;;;;;;5019923;28;20033;-73
2022/04/03 08:47:46;;;;;;;7.63;4.72;;;3.30;99.90;;;;;;5013226;28;20460;-73
2022/04/03 08:50:13;;;;;;;7.22;4.75;;;3.30;99.90;;;;;;5021227;28;20510;-72
2022/04/03 08:52:49;;;;;;;7.63;4.68;;;3.30;99.90;;;;;;5036565;28;20084;-73
2022/04/03 08:55:16;;;;;;;7.88;4.32;;;3.50;99.90;;;;;;5048498;28;20029;-73
2022/04/03 08:57:42;;;;;;;7.28;4.00;;;3.70;99.90;;;;;;5038106;28;20395;-73
2022/04/03 09:00:09;;;;;;;7.50;4.15;;;3.70;99.90;;;;;;5037721;28;20025;-72
2022/04/03 09:02:36;;;;;;;6.32;4.07;;;3.80;99.90;;;;;;5038827;28;20120;-73
2022/04/03 09:05:04;;;;;;;6.25;4.53;;;3.90;99.90;;;;;;5035197;28;20522;-72
2022/04/03 09:07:30;;;;;;;11.65;5.05;;;4.10;99.90;;;;;;5048369;28;20029;-72
2022/04/03 09:09:58;;;;;;;6.05;4.30;;;4.30;99.90;;;;;;5052624;28;20035;-72
2022/04/03 09:12:24;;;;;;;7.47;3.97;;;4.40;99.90;;;;;;5051578;28;20104;-72
2022/04/03 09:14:52;;;;;;;7.60;4.10;;;4.40;99.90;;;;;;5046082;28;20022;-72
2022/04/03 09:17:42;;;;;;;7.53;5.10;;;4.30;99.90;;;;;;5038995;28;20060;-72
2022/04/03 09:20:13;;;;;;;6.25;4.15;;;4.20;99.90;;;;;;5052603;28;20033;-72
2022/04/03 09:22:42;;;;;;;8.95;4.13;;;4.10;99.90;;;;;;5031161;28;20036;-72
2022/04/03 09:25:10;;;;;;;7.63;3.83;;;4.00;99.90;;;;;;5032445;28;20026;-73
2022/04/03 09:27:49;;;;;;;7.60;4.15;;;3.80;99.90;;;;;;5040193;28;20165;-73
2022/04/03 09:30:16;;;;;;;6.28;4.63;;;3.70;99.90;;;;;;5052051;28;20504;-73
2022/04/03 09:32:54;;;;;;;5.70;3.80;;;3.50;99.90;;;;;;5050781;28;20075;-73
2022/04/03 09:35:24;;;;;;;7.55;4.45;;;3.40;99.90;;;;;;5051150;28;20044;-72
2022/04/03 09:38:09;;;;;;;9.23;4.97;;;3.40;99.90;;;;;;5041272;28;20032;-73
2022/04/03 09:40:37;;;;;;;7.93;4.63;;;3.40;99.90;;;;;;5031521;28;20029;-72
2022/04/03 09:43:28;;;;;;;6.35;4.30;;;3.40;99.90;;;;;;5031769;28;20466;-72
2022/04/03 09:45:56;;;;;;;8.52;4.20;;;3.50;99.90;;;;;;5044621;28;20021;-72
2022/04/03 09:48:39;;;;;;;4.85;3.92;;;3.60;99.90;;;;;;5050794;28;20033;-72
2022/04/03 09:51:11;;;;;;;6.93;4.38;;;3.70;99.90;;;;;;5050762;28;20048;-72
2022/04/03 09:53:52;;;;;;;6.65;4.13;;;3.70;99.90;;;;;;5043975;28;20521;-71
2022/04/03 09:56:23;;;;;;;8.25;4.47;;;3.90;99.90;;;;;;5029878;28;20475;-74
2022/04/03 09:58:52;;;;;;;4.88;3.92;;;4.00;99.90;;;;;;5032199;28;20042;-71
2022/04/03 10:01:35;;;;;;;8.25;4.25;;;4.10;99.90;;;;;;5030753;28;20521;-72
2022/04/03 10:04:06;;;;;;;8.77;4.60;;;4.00;99.90;;;;;;5031555;28;20410;-71
2022/04/03 10:06:32;;;;;;;6.93;4.50;;;3.90;99.90;;;;;;5044385;28;20063;-72
2022/04/03 10:08:59;;;;;;;6.32;4.35;;;3.80;99.90;;;;;;5050583;28;20039;-71
2022/04/03 10:11:25;;;;;;;6.78;3.75;;;3.80;99.90;;;;;;5050762;28;20469;-72
2022/04/03 10:13:51;;;;;;;8.13;3.67;;;3.60;99.90;;;;;;5050347;28;20075;-72
2022/04/03 10:16:19;;;;;;;5.57;3.63;;;3.50;99.90;;;;;;5046455;28;20036;-72
2022/04/03 10:18:47;;;;;;;6.78;3.63;;;3.40;99.90;;;;;;5050738;28;20478;-71
2022/04/03 10:21:37;;;;;;;5.03;3.83;;;3.20;99.90;;;;;;5051417;28;20047;-71
2022/04/03 10:24:06;;;;;;;;;;;3.00;99.90;;;;;;5052420;28;20029;-71
2022/04/03 10:26:37;;;;;;;5.70;3.90;;;3.00;99.90;;;;;;5050046;28;19905;-72
2022/04/03 10:29:07;;;;;;;4.68;3.30;;;2.90;99.90;;;;;;5031550;28;20372;-71
2022/04/03 10:31:33;;;;;;;8.55;3.80;;;3.00;99.90;;;;;;5030545;28;20471;-73
2022/04/03 10:33:58;;;;;;;4.57;3.45;;;3.10;99.90;;;;;;5035493;28;20029;-72
2022/04/03 10:36:30;;;;;;;5.80;3.50;;;3.20;99.90;;;;;;5034440;28;20451;-72
2022/04/03 10:39:08;;;;;;;9.95;3.20;;;3.40;99.90;;;;;;5050681;28;20033;-73
2022/04/03 10:41:37;;;;;;;5.43;3.25;;;3.50;99.90;;;;;;5050624;28;20390;-72
2022/04/03 10:44:25;;;;;;;4.70;3.50;;;3.50;99.90;;;;;;5051442;28;20082;-72
2022/04/03 10:47:05;;;;;;;5.30;3.28;;;3.60;99.90;;;;;;5031965;28;20028;-73
2022/04/03 10:49:37;;;;;;;;;;;3.80;99.90;;;;;;5029410;28;20037;-72
2022/04/03 10:52:03;;;;;;;6.72;3.28;;;3.90;99.90;;;;;;5014809;28;19959;-72
2022/04/03 10:54:30;;;;;;;6.32;3.10;;;4.10;99.90;;;;;;5010614;28;20076;-71
2022/04/03 10:57:33;;;;;;;5.20;2.88;;;4.20;99.90;;;;;;5011572;28;20088;-71
2022/04/03 11:00:14;;;;;;;5.38;3.40;;;4.20;99.90;;;;;;5011425;28;20478;-71
2022/04/03 11:02:44;;;;;;;6.97;3.65;;;4.30;99.90;;;;;;5010763;28;20041;-71
2022/04/03 11:05:21;;;;;;;5.32;3.55;;;4.40;99.90;;;;;;5030219;28;20475;-71
2022/04/03 11:07:51;;;;;;;7.88;3.17;;;4.50;99.90;;;;;;5015682;28;20080;-72
2022/04/03 11:10:54;;;;;;;4.32;3.20;;;4.60;99.90;;;;;;5010741;28;20109;-73
2022/04/03 11:13:29;;;;;;;6.13;3.28;;;4.80;99.90;;;;;;5011051;28;20040;-72
2022/04/03 11:15:56;;;;;;;4.97;3.28;;;4.90;99.90;;;;;;5006067;28;20057;-71
2022/04/03 11:18:38;;;;;;;4.63;2.90;;;5.10;99.90;;;;;;5029904;28;20053;-71
2022/04/03 11:21:04;;;;;;;5.82;3.00;;;5.30;99.20;;;;;;5033712;28;20430;-71
2022/04/03 11:23:30;;;;;;;5.13;2.85;;;5.50;99.50;;;;;;5029422;28;20117;-71
2022/04/03 11:25:56;;;;;;;5.85;2.83;;;5.60;98.10;;;;;;5029438;28;20505;-71
2022/04/03 11:28:22;;;;;;;3.30;2.50;;;5.80;97.60;;;;;;5016119;28;20109;-71
2022/04/03 11:30:49;;;;;;;4.32;2.40;;;6.10;94.60;;;;;;5014610;28;20544;-71
2022/04/03 11:33:15;;;;;;;6.22;2.83;;;6.50;94.60;;;;;;5014712;28;20026;-72
2022/04/03 11:35:42;;;;;;;6.45;2.92;;;7.00;93.50;;;;;;5014946;28;20038;-72
2022/04/03 11:38:09;;;;;;;5.18;2.83;;;7.30;90.30;;;;;;5014589;28;20033;-71
2022/04/03 11:40:35;;;;;;;3.85;2.50;;;7.40;92.60;;;;;;5031373;28;20030;-71
2022/04/03 11:43:09;;;;;;;4.30;2.65;;;7.60;91.60;;;;;;5034131;28;20021;-71
2022/04/03 11:45:35;;;;;;;6.28;2.33;;;7.60;84.40;;;;;;5022046;28;20156;-72
2022/04/03 11:48:20;;;;;;;5.00;2.65;;;7.50;85.80;;;;;;5014507;28;20034;-72
2022/04/03 11:50:48;;;;;;;4.97;2.75;;;7.40;78.30;;;;;;5014208;28;20046;-72
2022/04/03 11:53:13;;;;;;;5.00;3.33;;;7.10;78.20;;;;;;5014382;28;20030;-71
2022/04/03 11:55:39;;;;;;;5.18;3.10;;;6.80;79.60;;;;;;5022336;28;20056;-71
2022/04/03 11:58:05;;;;;;;4.20;2.70;;;6.50;81.90;;;;;;5014432;28;20033;-71
2022/04/03 12:00:32;;;;;;;4.75;2.90;;;6.40;87.10;;;;;;5013422;28;20038;-71
2022/04/03 12:02:58;;;;;;;6.28;2.72;;;6.30;87.40;;;;;;5014105;28;20042;-72
2022/04/03 12:05:24;;;;;;;4.75;3.03;;;6.20;89.50;;;;;;5031810;28;20033;-73
2022/04/03 12:07:50;;;;;;;7.00;2.72;;;6.20;90.50;;;;;;5019637;28;20034;-72
2022/04/03 12:10:26;;;;;;;7.78;3.08;;;6.30;85.60;;;;;;5013604;28;20037;-72
2022/04/03 12:12:56;;;;;;;6.28;3.13;;;6.30;79.80;;;;;;5011348;28;20033;-72
2022/04/03 12:15:24;;;;;;;4.57;3.20;;;6.30;84.30;;;;;;5032349;28;20494;-73
2022/04/03 12:17:57;;;;;;;5.03;2.60;;;6.20;82.50;;;;;;5033579;28;20252;-71
2022/04/03 12:20:23;;;;;;;7.15;3.50;;;6.00;78.60;;;;;;5032559;28;20077;-74
2022/04/03 12:22:52;;;;;;;3.47;2.75;;;5.90;79.70;;;;;;5033350;28;20479;-72
2022/04/03 12:25:18;;;;;;;4.50;2.95;;;5.80;79.40;;;;;;5017798;28;20045;-71
2022/04/03 12:27:44;;;;;;;5.03;3.38;;;5.60;85.40;;;;;;5014185;28;20040;-72
2022/04/03 12:30:11;;;;;;;4.85;3.15;;;5.30;88.50;;;;;;5013296;28;20045;-71
2022/04/03 12:32:40;;;;;;;8.70;3.47;;;5.10;90.40;;;;;;5012604;28;20056;-71
2022/04/03 12:35:10;;;;;;;4.38;3.03;;;4.90;92.80;;;;;;5010224;28;20029;-72
2022/04/03 12:37:40;;;;;;;4.78;3.10;;;4.70;93.90;;;;;;5032650;28;20017;-72
2022/04/03 12:40:08;;;;;;;6.03;3.35;;;4.60;95.70;;;;;;5015561;28;20033;-72
2022/04/03 12:42:44;;;;;;;5.88;3.65;;;4.40;95.00;;;;;;5032262;28;20033;-71
2022/04/03 12:45:15;;;;;;;4.43;2.90;;;4.30;95.00;;;;;;5019990;28;20052;-72